Jasper, MO

12:24 AM CDT on July 31, 2014 (GMT -0500)
Atkinson Municipal (KPTS) Elev 951 ft | 37.45 °N, 94.73 °W | Change Station

Current weather conditions updated 9 minutes ago

Clear
Clear
66 °F
Feels Like 66 °F
N
0
Wind Variable Wind from North

Today is forecast to be Much Warmer than yesterday. Showers possible in the afternoon.

Today
High -- | Low -- °F
--% Chance of Precip.
Yesterday
High -- | Low -- °F
Precip. -- in
6:20 AM 8:25 PM
Waxing Crescent, 16% visible
Pressure 30.09 in
Visibility 3.0 miles
Clouds Clear
Dew Point 66 °F
Humidity 100%
Rainfall 0.00 in
Snow Depth Not available.
UV 0 out of 12
Pollen 5.30 out of 12
Air Quality Not available.
Flu Activity Not available.
METAR KPTS 310515Z AUTO 00000KT 3SM CLR 19/19 A3009 RMK AO2 T01900190

More Conditions Fewer Conditions

Pressure 30.09 in
Visibility 3.0 miles
Clouds Clear
Dew Point 66 °F
Humidity 100%
Rainfall 0.00 in
Snow Depth Not available.
UV 0 out of 12
Pollen 5.30 out of 12
Air Quality Not available.
Flu Activity Not available.
METAR KPTS 310515Z AUTO 00000KT 3SM CLR 19/19 A3009 RMK AO2 T01900190

More Conditions Fewer Conditions

10-Day Weather Forecast

Almanac

Astronomy

Jul. 31, 2014 Rise Set
Actual Time 6:20 AM CDT 8:25 PM CDT
Civil Twilight 5:51 AM CDT 8:54 PM CDT
Nautical Twilight 5:16 AM CDT 9:29 PM CDT
Astronomical Twilight 4:38 AM CDT 10:07 PM CDT
Moon 10:42 AM CDT 10:46 PM CDT
Length of Visible Light 15h 02m
Length of Day
14h 04m
Tomorrow will be 1m 46s shorter.
Waxing Crescent, 16% of the Moon is Illuminated
Today
Waxing Crescent
Aug 3
First Quarter
Aug 10
Full
Aug 17
Last Quarter
Aug 25
New

Today's Extremes

State Highs State Lows

Community

WunderPhotos

Upload Photos

1,739,248 photos uploaded!

Nearby

Snow Depth

Station Depth Elevation
No new snow has been reported.

Earthquake Activity

City Distance Mag. Time & Date
No recent earthquake activity has been reported nearby.
Minimum magnitude displayed is 2.5.

Coastal Water Temperatures

Place Temperature
No Stations Reporting

Nearby Weather Stations

Station Location Temp. Dew Point Humidity Wind Precip. Elev Updated Type
Irwin, MO, Lamar, MO 65.7 °F 64 °F 93% South  at  0.0 mph 0.00 in / hr 955 ft 12:16 AM CDT Normal
Mohaska, Joplin, MO 66.2 °F 64 °F 93% NE  at  1.0 mph 0.00 in / hr 1010 ft 12:22 AM CDT Normal
RAWS MT VERNON MO, La Russell, MO 65 °F 64 °F 95% East  at  3 mph 0.00 in / hr 1266 ft 11:00 PM CDT MADIS
Southwest Pittsburg, Kansas, Pittsburg, KS 67.5 °F 65 °F 94% North  at  - - / hr 935 ft 12:20 AM CDT Normal
Frontenac, KS 64.7 °F 64 °F 98% ENE  at  0.0 mph 0.00 in / hr 942 ft 12:24 AM CDT Rapid Fire
Frontenac Industrial Park, Frontenac, KS 66.2 °F 49 °F 54% NW  at  2.2 mph 0.00 in / hr 965 ft 12:24 AM CDT Rapid Fire

Show More Stations Show Fewer Stations